createdAt,value
2018-03-20T00:02:16.924Z,-5.30
2018-03-20T00:04:45.209Z,-5.30
2018-03-20T00:07:13.561Z,-5.30
2018-03-20T00:09:41.067Z,-5.30
2018-03-20T00:12:08.587Z,-5.40
2018-03-20T00:14:36.061Z,-5.20
2018-03-20T00:17:03.610Z,-5.10
2018-03-20T00:19:31.124Z,-5.10
2018-03-20T00:21:59.388Z,-4.80
2018-03-20T00:24:26.954Z,-4.80
2018-03-20T00:26:54.451Z,-4.60
2018-03-20T00:29:21.950Z,-4.60
2018-03-20T00:31:49.454Z,-4.50
2018-03-20T00:34:17.964Z,-4.40
2018-03-20T00:36:46.352Z,-4.50
2018-03-20T00:39:13.920Z,-4.40
2018-03-20T00:41:41.393Z,-4.50
2018-03-20T00:44:08.874Z,-4.70
2018-03-20T00:46:36.506Z,-4.80
2018-03-20T00:49:04.012Z,-5.00
2018-03-20T00:51:31.556Z,-5.20
2018-03-20T00:53:59.083Z,-5.40
2018-03-20T00:56:26.607Z,-5.60
2018-03-20T00:58:54.136Z,-5.80
2018-03-20T01:01:21.611Z,-6.00
2018-03-20T01:03:49.183Z,-6.00
2018-03-20T01:06:16.675Z,-6.00
2018-03-20T01:08:45.020Z,-5.60
2018-03-20T01:11:12.489Z,-5.60
2018-03-20T01:13:40.040Z,-5.50
2018-03-20T01:16:07.589Z,-5.50
2018-03-20T01:18:35.079Z,-5.50
2018-03-20T01:21:02.796Z,-5.70
2018-03-20T01:23:30.294Z,-6.00
2018-03-20T01:25:57.763Z,-6.10
2018-03-20T01:28:25.272Z,-6.20
2018-03-20T01:30:52.762Z,-6.30
2018-03-20T01:33:20.242Z,-5.90
2018-03-20T01:35:47.805Z,-5.50
2018-03-20T01:38:16.858Z,-5.10
2018-03-20T01:40:44.404Z,-5.10
2018-03-20T01:43:12.238Z,-4.90
2018-03-20T01:45:39.977Z,-4.80
2018-03-20T01:48:07.520Z,-4.60
2018-03-20T01:50:35.839Z,-4.30
2018-03-20T01:53:03.409Z,-4.30
2018-03-20T01:55:31.704Z,-4.10
2018-03-20T01:57:59.205Z,-4.20
2018-03-20T02:00:26.692Z,-4.00
2018-03-20T02:02:54.193Z,-3.90
2018-03-20T02:05:22.489Z,-3.80
2018-03-20T02:07:50.038Z,-3.80
2018-03-20T02:10:17.551Z,-3.60
2018-03-20T02:12:45.065Z,-3.60
2018-03-20T02:15:13.322Z,-3.50
2018-03-20T02:17:41.601Z,-3.40
2018-03-20T02:20:09.129Z,-3.40
2018-03-20T02:22:36.649Z,-3.30
2018-03-20T02:25:05.018Z,-3.10
2018-03-20T02:27:32.589Z,-3.20
2018-03-20T02:30:00.110Z,-3.10
2018-03-20T02:32:27.605Z,-2.90
2018-03-20T02:34:55.879Z,-2.80
2018-03-20T02:37:23.391Z,-2.80
2018-03-20T02:39:50.899Z,-2.70
2018-03-20T02:42:19.152Z,-2.70
2018-03-20T02:44:46.766Z,-2.70
2018-03-20T02:47:14.234Z,-2.70
2018-03-20T02:49:42.401Z,-2.60
2018-03-20T02:52:09.891Z,-2.60
2018-03-20T02:54:37.427Z,-2.60
2018-03-20T02:57:04.962Z,-2.60
2018-03-20T02:59:33.063Z,-2.60
2018-03-20T03:02:00.547Z,-2.50
2018-03-20T03:04:28.054Z,-2.50
2018-03-20T03:06:55.634Z,-2.50
2018-03-20T03:09:23.932Z,-2.50
2018-03-20T03:11:51.462Z,-2.40
2018-03-20T03:14:18.925Z,-2.40
2018-03-20T03:16:47.356Z,-2.40
2018-03-20T03:19:14.848Z,-2.40
2018-03-20T03:21:42.484Z,-2.40
2018-03-20T03:24:10.002Z,-2.30
2018-03-20T03:26:37.610Z,-2.30
2018-03-20T03:29:05.078Z,-2.30
2018-03-20T03:31:32.597Z,-2.30
2018-03-20T03:34:00.150Z,-2.30
2018-03-20T03:36:27.667Z,-2.20
2018-03-20T03:38:55.216Z,-2.20
2018-03-20T03:41:22.655Z,-2.20
2018-03-20T03:43:50.208Z,-2.20
2018-03-20T03:46:17.688Z,-2.20
2018-03-20T03:48:45.315Z,-2.30
2018-03-20T03:51:13.555Z,-2.30
2018-03-20T03:53:41.821Z,-2.30
2018-03-20T03:56:09.306Z,-2.30
2018-03-20T03:58:36.844Z,-2.40
2018-03-20T04:01:04.273Z,-2.40
2018-03-20T04:03:31.779Z,-2.40
2018-03-20T04:05:59.529Z,-2.40
2018-03-20T04:08:27.003Z,-2.50
2018-03-20T04:10:55.331Z,-2.70
2018-03-20T04:13:23.597Z,-2.80
2018-03-20T04:15:51.128Z,-2.80
2018-03-20T04:18:19.392Z,-2.80
2018-03-20T04:20:46.921Z,-2.90
2018-03-20T04:23:14.758Z,-2.80
2018-03-20T04:25:42.276Z,-2.90
2018-03-20T04:28:09.768Z,-2.90
2018-03-20T04:30:38.079Z,-2.80
2018-03-20T04:33:06.328Z,-2.80
2018-03-20T04:35:34.580Z,-2.80
2018-03-20T04:38:02.173Z,-2.80
2018-03-20T04:40:29.647Z,-2.80
2018-03-20T04:42:57.897Z,-2.80
2018-03-20T04:45:25.433Z,-2.80
2018-03-20T04:47:52.967Z,-2.80
2018-03-20T04:50:20.486Z,-2.80
2018-03-20T04:52:48.131Z,-2.80
2018-03-20T04:55:15.634Z,-2.80
2018-03-20T04:57:43.136Z,-2.80
2018-03-20T05:00:10.674Z,-2.80
2018-03-20T05:02:38.148Z,-2.70
2018-03-20T05:05:06.361Z,-2.80
2018-03-20T05:07:33.907Z,-2.70
2018-03-20T05:10:02.097Z,-2.70
2018-03-20T05:12:30.430Z,-2.70
2018-03-20T05:14:57.914Z,-2.70
2018-03-20T05:17:25.448Z,-2.70
2018-03-20T05:19:52.928Z,-2.60
2018-03-20T05:22:21.261Z,-2.60
2018-03-20T05:24:48.765Z,-2.60
2018-03-20T05:27:17.064Z,-2.50
2018-03-20T05:29:45.294Z,-2.50
2018-03-20T05:32:12.898Z,-2.50
2018-03-20T05:34:40.339Z,-2.40
2018-03-20T05:37:08.146Z,-2.40
2018-03-20T05:39:35.639Z,-2.40
2018-03-20T05:42:03.152Z,-2.40
2018-03-20T05:44:31.508Z,-2.30
2018-03-20T05:46:59.014Z,-2.30
2018-03-20T05:49:26.798Z,-2.30
2018-03-20T05:51:55.137Z,-2.20
2018-03-20T05:54:22.824Z,-2.20
2018-03-20T05:56:50.416Z,-2.10
2018-03-20T05:59:18.165Z,-2.00
2018-03-20T06:01:46.479Z,-1.90
2018-03-20T06:04:14.010Z,-1.90
2018-03-20T06:06:41.618Z,-1.90
2018-03-20T06:09:09.128Z,-1.80
2018-03-20T06:11:36.604Z,-1.80
2018-03-20T06:14:04.368Z,-1.70
2018-03-20T06:16:32.072Z,-1.70
2018-03-20T06:19:00.333Z,-1.60
2018-03-20T06:21:27.902Z,-1.60
2018-03-20T06:23:55.447Z,-1.60
2018-03-20T06:26:22.973Z,-1.60
2018-03-20T06:28:50.446Z,-1.50
2018-03-20T06:31:17.929Z,-1.50
2018-03-20T06:33:46.263Z,-1.40
2018-03-20T06:36:13.746Z,-1.40
2018-03-20T06:38:43.292Z,-1.30
2018-03-20T06:41:11.097Z,-1.30
2018-03-20T06:43:38.640Z,-1.20
2018-03-20T06:46:06.175Z,-1.20
2018-03-20T06:48:33.691Z,-1.10
2018-03-20T06:51:01.283Z,-1.10
2018-03-20T06:53:28.802Z,-1.00
2018-03-20T06:55:56.278Z,-0.90
2018-03-20T06:58:23.795Z,-0.90
2018-03-20T07:00:52.094Z,-0.80
2018-03-20T07:03:19.621Z,-0.80
2018-03-20T07:05:47.219Z,-0.80
2018-03-20T07:08:14.684Z,-0.60
2018-03-20T07:10:42.934Z,-0.20
2018-03-20T07:13:10.400Z,-0.20
2018-03-20T07:15:38.776Z,0.10
2018-03-20T07:18:06.315Z,0.00
2018-03-20T07:20:33.995Z,0.20
2018-03-20T07:23:01.556Z,0.30
2018-03-20T07:25:28.978Z,0.30
2018-03-20T07:27:56.483Z,0.40
2018-03-20T07:30:24.041Z,0.50
2018-03-20T07:32:51.599Z,0.60
2018-03-20T07:35:19.848Z,0.70
2018-03-20T07:37:47.486Z,0.70
2018-03-20T07:40:14.964Z,0.80
2018-03-20T07:42:43.188Z,1.00
2018-03-20T07:45:10.736Z,0.90
2018-03-20T07:47:38.971Z,1.00
2018-03-20T07:50:07.711Z,1.30
2018-03-20T07:52:35.956Z,1.20
2018-03-20T07:55:07.121Z,1.30
2018-03-20T07:57:35.437Z,1.40
2018-03-20T08:00:02.911Z,1.40
2018-03-20T08:02:30.490Z,1.60
2018-03-20T08:04:57.989Z,1.60
2018-03-20T08:07:26.339Z,2.00
2018-03-20T08:09:54.157Z,1.90
2018-03-20T08:12:21.634Z,2.00
2018-03-20T08:14:49.758Z,2.00
2018-03-20T08:17:17.284Z,2.20
2018-03-20T08:19:44.809Z,2.30
2018-03-20T08:22:12.298Z,2.30
2018-03-20T08:24:39.775Z,2.40
2018-03-20T08:27:07.305Z,2.60
2018-03-20T08:29:34.779Z,2.90
2018-03-20T08:32:02.269Z,3.00
2018-03-20T08:34:29.736Z,4.20
2018-03-20T08:36:57.304Z,5.90
2018-03-20T08:39:24.832Z,6.00
2018-03-20T08:41:52.419Z,4.90
2018-03-20T08:44:19.997Z,4.10
2018-03-20T08:46:47.562Z,3.60
2018-03-20T08:49:15.030Z,3.30
2018-03-20T08:51:42.480Z,3.20
2018-03-20T08:54:10.010Z,4.20
2018-03-20T08:56:37.498Z,4.70
2018-03-20T08:59:04.994Z,4.50
2018-03-20T09:01:32.596Z,4.90
2018-03-20T09:04:00.861Z,5.50
2018-03-20T09:06:29.152Z,4.40
2018-03-20T09:08:57.407Z,4.00
2018-03-20T09:11:25.692Z,4.70
2018-03-20T09:13:53.129Z,4.70
2018-03-20T09:16:20.732Z,5.80
2018-03-20T09:18:49.040Z,7.10
2018-03-20T09:21:17.322Z,6.70
2018-03-20T09:23:45.557Z,5.70
2018-03-20T09:26:13.897Z,4.60
2018-03-20T09:28:41.348Z,4.50
2018-03-20T09:31:08.842Z,3.80
2018-03-20T09:33:36.360Z,4.50
2018-03-20T09:36:03.851Z,5.70
2018-03-20T09:38:31.965Z,6.20
2018-03-20T09:40:59.449Z,6.90
2018-03-20T09:43:27.362Z,5.90
2018-03-20T09:45:55.579Z,6.40
2018-03-20T09:48:23.120Z,6.40
2018-03-20T09:50:50.626Z,6.20
2018-03-20T09:53:18.939Z,5.90
2018-03-20T09:55:46.689Z,5.90
2018-03-20T09:58:14.229Z,5.70
2018-03-20T10:00:42.478Z,5.40
2018-03-20T10:03:10.022Z,5.40
2018-03-20T10:05:37.498Z,5.50
2018-03-20T10:08:05.022Z,5.40
2018-03-20T10:10:32.512Z,5.50
2018-03-20T10:12:59.978Z,5.90
2018-03-20T10:15:28.330Z,5.90
2018-03-20T10:17:55.858Z,5.60
2018-03-20T10:20:23.663Z,5.90
2018-03-20T10:22:51.942Z,5.60
2018-03-20T10:25:19.412Z,5.60
2018-03-20T10:27:46.878Z,5.90
2018-03-20T10:30:14.422Z,6.30
2018-03-20T10:32:42.663Z,6.30
2018-03-20T10:35:10.229Z,6.30
2018-03-20T10:37:37.836Z,6.40
2018-03-20T10:40:05.307Z,5.90
2018-03-20T10:42:32.901Z,6.00
2018-03-20T10:45:00.390Z,5.70
2018-03-20T10:47:27.892Z,5.90
2018-03-20T10:49:55.378Z,6.00
2018-03-20T10:52:22.917Z,6.00
2018-03-20T10:54:50.439Z,6.30
2018-03-20T10:57:17.911Z,6.50
2018-03-20T10:59:45.431Z,6.70
2018-03-20T11:02:12.974Z,6.70
2018-03-20T11:04:40.503Z,6.50
2018-03-20T11:07:09.090Z,6.80
2018-03-20T11:09:36.593Z,7.00
2018-03-20T11:12:04.099Z,6.90
2018-03-20T11:14:31.665Z,7.00
2018-03-20T11:16:59.342Z,7.00
2018-03-20T11:19:26.827Z,6.60
2018-03-20T11:21:55.091Z,6.70
2018-03-20T11:24:22.606Z,6.60
2018-03-20T11:26:50.139Z,6.60
2018-03-20T11:29:17.618Z,6.50
2018-03-20T11:31:45.158Z,6.80
2018-03-20T11:34:12.740Z,6.70
2018-03-20T11:36:40.750Z,6.60
2018-03-20T11:39:08.232Z,6.70
2018-03-20T11:41:35.703Z,7.10
2018-03-20T11:44:03.198Z,7.00
2018-03-20T11:46:31.440Z,7.00
2018-03-20T11:48:58.976Z,7.00
2018-03-20T11:51:26.468Z,7.60
2018-03-20T11:53:54.072Z,7.50
2018-03-20T11:56:21.479Z,7.80
2018-03-20T11:58:49.071Z,8.20
2018-03-20T12:01:16.564Z,7.80
2018-03-20T12:03:44.063Z,7.70
2018-03-20T12:06:11.805Z,7.70
2018-03-20T12:08:39.319Z,7.90
2018-03-20T12:11:06.863Z,8.00
2018-03-20T12:13:35.037Z,8.00
2018-03-20T12:16:02.591Z,8.00
2018-03-20T12:18:30.161Z,8.30
2018-03-20T12:20:57.681Z,8.20
2018-03-20T12:23:25.300Z,7.90
2018-03-20T12:25:52.727Z,7.90
2018-03-20T12:28:20.241Z,8.10
2018-03-20T12:30:47.751Z,7.70
2018-03-20T12:33:15.980Z,8.40
2018-03-20T12:35:43.511Z,8.40
2018-03-20T12:38:11.010Z,8.70
2018-03-20T12:40:38.512Z,8.40
2018-03-20T12:43:06.427Z,8.50
2018-03-20T12:45:33.886Z,9.10
2018-03-20T12:48:01.373Z,8.40
2018-03-20T12:50:28.888Z,8.00
2018-03-20T12:52:57.671Z,7.20
2018-03-20T12:55:25.896Z,7.30
2018-03-20T12:57:53.446Z,7.20
2018-03-20T13:00:21.757Z,7.10
2018-03-20T13:02:49.217Z,7.10
2018-03-20T13:05:16.718Z,7.30
2018-03-20T13:07:44.258Z,7.80
2018-03-20T13:10:11.905Z,8.60
2018-03-20T13:12:39.383Z,8.50
2018-03-20T13:15:06.862Z,7.80
2018-03-20T13:17:34.355Z,7.60
2018-03-20T13:20:01.849Z,8.20
2018-03-20T13:22:29.380Z,9.90
2018-03-20T13:24:56.901Z,9.30
2018-03-20T13:27:24.350Z,9.30
2018-03-20T13:29:51.830Z,9.40
2018-03-20T13:32:20.189Z,9.00
2018-03-20T13:34:47.712Z,9.00
2018-03-20T13:37:15.175Z,9.40
2018-03-20T13:39:42.760Z,9.40
2018-03-20T13:42:10.208Z,9.20
2018-03-20T13:44:38.738Z,8.90
2018-03-20T13:47:06.206Z,8.90
2018-03-20T13:49:33.702Z,8.80
2018-03-20T13:52:01.270Z,9.10
2018-03-20T13:54:28.715Z,8.60
2018-03-20T13:56:56.275Z,9.10
2018-03-20T13:59:25.202Z,9.30
2018-03-20T14:01:52.707Z,9.30
2018-03-20T14:04:20.201Z,8.80
2018-03-20T14:06:47.737Z,9.10
2018-03-20T14:09:15.237Z,9.30
2018-03-20T14:11:42.710Z,8.80
2018-03-20T14:14:10.253Z,8.20
2018-03-20T14:16:37.762Z,8.40
2018-03-20T14:19:05.287Z,8.60
2018-03-20T14:21:33.540Z,9.40
2018-03-20T14:24:01.025Z,9.40
2018-03-20T14:26:29.355Z,8.80
2018-03-20T14:28:56.847Z,8.80
2018-03-20T14:31:24.382Z,9.30
2018-03-20T14:33:51.962Z,9.20
2018-03-20T14:36:19.396Z,8.50
2018-03-20T14:38:46.942Z,8.40
2018-03-20T14:41:14.874Z,8.50
2018-03-20T14:43:42.407Z,7.80
2018-03-20T14:46:09.897Z,7.60
2018-03-20T14:48:37.380Z,7.40
2018-03-20T14:51:04.907Z,7.30
2018-03-20T14:53:32.449Z,7.10
2018-03-20T14:56:01.282Z,7.30
2018-03-20T14:58:28.794Z,7.30
2018-03-20T15:00:56.322Z,7.40
2018-03-20T15:03:24.592Z,7.20
2018-03-20T15:05:52.122Z,7.10
2018-03-20T15:08:19.588Z,7.00
2018-03-20T15:10:47.871Z,7.00
2018-03-20T15:13:15.372Z,7.00
2018-03-20T15:15:43.735Z,7.10
2018-03-20T15:18:11.186Z,7.10
2018-03-20T15:20:38.792Z,6.90
2018-03-20T15:23:07.694Z,6.90
2018-03-20T15:25:35.980Z,6.90
2018-03-20T15:28:04.270Z,6.90
2018-03-20T15:30:31.817Z,6.90
2018-03-20T15:33:00.100Z,6.90
2018-03-20T15:35:28.623Z,7.00
2018-03-20T15:37:56.194Z,6.90
2018-03-20T15:40:24.480Z,6.90
2018-03-20T15:42:51.977Z,6.90
2018-03-20T15:45:20.418Z,6.70
2018-03-20T15:47:48.004Z,6.70
2018-03-20T15:50:15.487Z,6.70
2018-03-20T15:52:42.991Z,6.70
2018-03-20T15:55:10.451Z,6.70
2018-03-20T15:57:38.743Z,6.80
2018-03-20T16:00:07.088Z,6.70
2018-03-20T16:02:36.097Z,6.60
2018-03-20T16:05:03.573Z,6.60
2018-03-20T16:07:31.029Z,6.60
2018-03-20T16:09:58.505Z,6.60
2018-03-20T16:12:26.042Z,6.60
2018-03-20T16:14:54.455Z,6.60
2018-03-20T16:17:22.730Z,6.50
2018-03-20T16:19:50.204Z,6.50
2018-03-20T16:22:17.875Z,6.50
2018-03-20T16:24:45.370Z,6.50
2018-03-20T16:27:12.935Z,6.40
2018-03-20T16:29:41.162Z,6.40
2018-03-20T16:32:08.863Z,6.40
2018-03-20T16:34:36.674Z,6.30
2018-03-20T16:37:04.167Z,6.30
2018-03-20T16:39:33.093Z,6.20
2018-03-20T16:42:00.583Z,6.10
2018-03-20T16:44:28.968Z,6.10
2018-03-20T16:46:56.475Z,6.10
2018-03-20T16:49:24.225Z,6.00
2018-03-20T16:51:53.756Z,6.00
2018-03-20T16:54:21.281Z,6.00
2018-03-20T16:56:48.788Z,6.00
2018-03-20T16:59:16.473Z,6.00
2018-03-20T17:01:44.625Z,5.80
2018-03-20T17:04:12.169Z,5.70
2018-03-20T17:06:40.759Z,5.80
2018-03-20T17:09:08.451Z,5.80
2018-03-20T17:11:35.995Z,5.70
2018-03-20T17:14:03.493Z,5.60
2018-03-20T17:16:30.993Z,5.60
2018-03-20T17:18:58.475Z,5.50
2018-03-20T17:21:25.978Z,5.40
2018-03-20T17:23:53.494Z,5.40
2018-03-20T17:26:21.772Z,5.30
2018-03-20T17:28:50.399Z,5.20
2018-03-20T17:31:18.067Z,5.30
2018-03-20T17:33:45.806Z,5.20
2018-03-20T17:36:13.373Z,5.10
2018-03-20T17:38:42.204Z,4.90
2018-03-20T17:41:09.672Z,4.90
2018-03-20T17:43:37.154Z,4.90
2018-03-20T17:46:04.706Z,4.80
2018-03-20T17:48:32.969Z,4.70
2018-03-20T17:51:00.473Z,4.70
2018-03-20T17:53:28.788Z,4.60
2018-03-20T17:55:56.362Z,4.40
2018-03-20T17:58:24.589Z,4.40
2018-03-20T18:00:52.131Z,4.40
2018-03-20T18:03:19.669Z,4.50
2018-03-20T18:05:47.248Z,4.40
2018-03-20T18:08:14.781Z,4.30
2018-03-20T18:10:42.895Z,4.20
2018-03-20T18:13:10.874Z,4.10
2018-03-20T18:15:38.395Z,4.10
2018-03-20T18:18:06.308Z,4.10
2018-03-20T18:20:34.069Z,4.00
2018-03-20T18:23:01.819Z,3.90
2018-03-20T18:25:29.311Z,3.80
2018-03-20T18:27:56.833Z,3.80
2018-03-20T18:30:24.299Z,3.80
2018-03-20T18:32:52.605Z,3.70
2018-03-20T18:35:20.085Z,3.70
2018-03-20T18:37:47.558Z,3.70
2018-03-20T18:40:15.101Z,3.70
2018-03-20T18:42:42.936Z,3.70
2018-03-20T18:45:10.417Z,3.70
2018-03-20T18:47:37.886Z,3.60
2018-03-20T18:50:05.467Z,3.60
2018-03-20T18:52:32.986Z,3.40
2018-03-20T18:55:01.259Z,3.40
2018-03-20T18:57:29.623Z,3.30
2018-03-20T18:59:57.108Z,3.30
2018-03-20T19:02:25.410Z,3.30
2018-03-20T19:04:53.720Z,3.20
2018-03-20T19:07:22.038Z,3.20
2018-03-20T19:09:49.491Z,3.10
2018-03-20T19:12:17.778Z,3.00
2018-03-20T19:14:46.081Z,3.00
2018-03-20T19:17:14.407Z,3.00
2018-03-20T19:19:41.903Z,3.00
2018-03-20T19:22:09.558Z,2.90
2018-03-20T19:24:38.444Z,2.90
2018-03-20T19:27:06.061Z,2.90
2018-03-20T19:29:33.565Z,2.80
2018-03-20T19:32:01.160Z,2.80
2018-03-20T19:34:28.736Z,2.70
2018-03-20T19:36:56.213Z,2.80
2018-03-20T19:39:23.721Z,2.70
2018-03-20T19:41:51.181Z,2.70
2018-03-20T19:44:19.511Z,2.70
2018-03-20T19:46:48.296Z,2.70
2018-03-20T19:49:15.767Z,2.80
2018-03-20T19:51:44.149Z,2.80
2018-03-20T19:54:11.636Z,2.80
2018-03-20T19:56:39.221Z,2.70
2018-03-20T19:59:06.691Z,2.50
2018-03-20T20:01:34.232Z,2.60
2018-03-20T20:04:01.963Z,2.40
2018-03-20T20:06:29.572Z,2.50
2018-03-20T20:08:57.088Z,2.50
2018-03-20T20:11:24.706Z,2.30
2018-03-20T20:13:53.449Z,2.30
2018-03-20T20:16:20.898Z,2.30
2018-03-20T20:18:48.432Z,2.40
2018-03-20T20:21:16.019Z,2.30
2018-03-20T20:23:43.608Z,2.30
2018-03-20T20:26:11.064Z,2.20
2018-03-20T20:28:38.716Z,2.20
2018-03-20T20:31:06.957Z,2.20
2018-03-20T20:33:34.511Z,2.20
2018-03-20T20:36:02.008Z,2.20
2018-03-20T20:38:29.575Z,2.10
2018-03-20T20:40:57.054Z,2.00
2018-03-20T20:43:24.571Z,2.00
2018-03-20T20:45:52.328Z,2.00
2018-03-20T20:48:21.625Z,2.00
2018-03-20T20:50:51.205Z,1.90
2018-03-20T20:53:18.863Z,1.90
2018-03-20T20:55:46.409Z,1.80
2018-03-20T20:58:14.772Z,1.70
2018-03-20T21:00:43.524Z,1.70
2018-03-20T21:03:10.972Z,1.70
2018-03-20T21:05:39.158Z,1.50
2018-03-20T21:08:07.458Z,1.40
2018-03-20T21:10:35.095Z,1.40
2018-03-20T21:13:02.625Z,1.50
2018-03-20T21:15:30.808Z,1.50
2018-03-20T21:17:58.499Z,1.50
2018-03-20T21:20:25.971Z,1.60
2018-03-20T21:22:53.482Z,1.60
2018-03-20T21:25:20.976Z,1.60
2018-03-20T21:27:48.503Z,1.50
2018-03-20T21:30:15.979Z,1.40
2018-03-20T21:32:43.556Z,1.40
2018-03-20T21:35:12.453Z,1.40
2018-03-20T21:37:39.923Z,1.40
2018-03-20T21:40:07.414Z,1.20
2018-03-20T21:42:34.886Z,1.10
2018-03-20T21:45:03.485Z,0.90
2018-03-20T21:47:31.760Z,0.90
2018-03-20T21:50:00.013Z,0.70
2018-03-20T21:52:27.482Z,0.70
2018-03-20T21:54:55.600Z,0.50
2018-03-20T21:57:23.158Z,0.50
2018-03-20T21:59:50.727Z,0.70
2018-03-20T22:02:18.172Z,0.80
2018-03-20T22:04:46.472Z,0.90
2018-03-20T22:07:13.964Z,0.90
2018-03-20T22:09:41.463Z,0.90
2018-03-20T22:12:08.965Z,0.90
2018-03-20T22:14:38.002Z,0.70
2018-03-20T22:17:05.464Z,0.70
2018-03-20T22:19:33.358Z,0.60
2018-03-20T22:22:00.855Z,0.40
2018-03-20T22:24:29.656Z,0.40
2018-03-20T22:26:57.921Z,0.40
2018-03-20T22:29:26.227Z,0.40
2018-03-20T22:31:53.798Z,0.40
2018-03-20T22:34:21.251Z,0.50
2018-03-20T22:36:48.821Z,0.50
2018-03-20T22:39:16.354Z,0.30
2018-03-20T22:41:43.892Z,0.30
2018-03-20T22:44:11.421Z,0.40
2018-03-20T22:46:39.796Z,0.50
2018-03-20T22:49:10.142Z,0.40
2018-03-20T22:51:37.676Z,0.50
2018-03-20T22:54:05.121Z,0.30
2018-03-20T22:56:33.408Z,-0.30
2018-03-20T22:59:01.022Z,-0.30
2018-03-20T23:01:28.601Z,-0.10
2018-03-20T23:03:56.151Z,-0.20
2018-03-20T23:06:23.699Z,0.10
2018-03-20T23:08:51.392Z,0.30
2018-03-20T23:11:18.964Z,0.10
2018-03-20T23:13:47.197Z,0.10
2018-03-20T23:16:14.803Z,0.10
2018-03-20T23:18:42.311Z,-0.10
2018-03-20T23:21:09.775Z,-0.40
2018-03-20T23:23:37.330Z,-0.50
2018-03-20T23:26:04.785Z,-0.60
2018-03-20T23:28:33.151Z,-0.80
2018-03-20T23:31:01.315Z,-0.80
2018-03-20T23:33:28.816Z,-0.80
2018-03-20T23:35:57.058Z,-0.70
2018-03-20T23:38:25.246Z,-0.70
2018-03-20T23:40:52.908Z,-0.70
2018-03-20T23:43:20.465Z,-0.80
2018-03-20T23:45:47.966Z,-0.80
2018-03-20T23:48:16.481Z,-1.00
2018-03-20T23:50:44.000Z,-1.00
2018-03-20T23:53:12.305Z,-0.80
2018-03-20T23:55:39.832Z,-0.80
2018-03-20T23:58:07.331Z,-0.70
